Aviation Digital Data Service (ADDS)

Output produced by METARs form (1907 UTC 24 April 2017)
found at http://bcaws.aviationweather.gov/adds/metars/
 
METAR text: KMOD 241853Z 31012KT 10SM SCT031 OVC070 17/09 A3007 RMK AO2 SLP183 T01720089
Conditions at: KMOD (MODESTO , CA, US) observed 1853 UTC 24 April 2017
Temperature: 17.2°C (63°F)
Dewpoint: 8.9°C (48°F) [RH = 58%]
Pressure (altimeter): 30.07 inches Hg (1018.4 mb)
[Sea-level pressure: 1018.3 mb]
Winds: from the NW (310 degrees) at 14 MPH (12 knots; 6.2 m/s)
Visibility: 10 or more miles (16+ km)
Ceiling: 7000 feet AGL
Clouds: scattered clouds at 3100 feet AGL
overcast cloud deck at 7000 feet AGL
Weather: no significant weather observed at this time